Time;durP1;ratioP1;P1;durP2;ratioP2;P2;SDS_P1;SDS_P2;PMS_P1;PMS_P2;Temp;Humidity;BMP_temperature;BMP_pressure;BME280_temperature;BME280_humidity;BME280_pressure;Samples;Min_cycle;Max_cycle;Signal;HPM_P1;HPM_P2
2021/03/05 00:00:10;;;;;;;18.80;11.00;;;;;;;8.12;48.35;94836.34;5094579;28;20439;-78
2021/03/05 00:02:37;;;;;;;18.23;13.33;;;;;;;8.09;48.24;94836.56;5094645;28;20451;-79
2021/03/05 00:05:04;;;;;;;25.50;13.20;;;;;;;8.08;48.46;94833.13;5095098;28;20990;-79
2021/03/05 00:07:30;;;;;;;26.43;14.47;;;;;;;8.03;48.34;94832.63;5095521;28;20453;-78
2021/03/05 00:09:57;;;;;;;25.00;13.47;;;;;;;8.01;48.75;94831.94;5095311;28;20466;-78
2021/03/05 00:12:23;;;;;;;24.93;13.10;;;;;;;7.95;49.04;94840.22;5043510;28;20447;-78
2021/03/05 00:14:50;;;;;;;26.23;12.93;;;;;;;7.91;48.65;94817.91;5095627;28;20489;-78
2021/03/05 00:17:17;;;;;;;27.23;13.77;;;;;;;7.93;48.75;94831.69;5060396;28;20432;-78
2021/03/05 00:19:44;;;;;;;25.73;13.13;;;;;;;7.87;48.93;94826.91;5095608;28;20993;-78
2021/03/05 00:22:11;;;;;;;21.30;13.97;;;;;;;7.83;48.96;94819.44;5096019;28;20440;-78
2021/03/05 00:24:37;;;;;;;23.23;13.47;;;;;;;7.81;48.92;94816.94;5095046;28;20450;-78
2021/03/05 00:27:04;;;;;;;30.13;14.27;;;;;;;7.81;48.49;94830.00;5094778;28;20862;-78
2021/03/05 00:29:30;;;;;;;23.43;14.07;;;;;;;7.82;49.21;94821.22;5094266;28;20579;-78
2021/03/05 00:31:56;;;;;;;16.87;13.03;;;;;;;7.77;49.00;94823.31;5094578;28;20447;-78
2021/03/05 00:34:24;;;;;;;21.43;13.40;;;;;;;7.67;49.59;94825.78;5042699;28;20526;-78
2021/03/05 00:36:50;;;;;;;26.20;12.93;;;;;;;7.73;49.73;94832.34;5094480;28;20447;-78
2021/03/05 00:39:17;;;;;;;28.80;14.67;;;;;;;7.74;49.57;94824.38;5094457;28;20439;-78
2021/03/05 00:41:44;;;;;;;19.37;11.77;;;;;;;7.77;49.55;94833.75;5094127;28;20453;-79
2021/03/05 00:44:10;;;;;;;25.00;12.50;;;;;;;7.79;49.74;94818.81;5094174;28;20891;-78
2021/03/05 00:46:36;;;;;;;20.40;12.47;;;;;;;7.81;49.83;94816.94;5094604;28;20435;-79
2021/03/05 00:49:03;;;;;;;22.97;11.47;;;;;;;7.80;49.49;94815.25;5058963;28;20446;-78
2021/03/05 00:51:30;;;;;;;24.67;12.83;;;;;;;7.81;49.86;94822.16;5094527;28;20443;-79
2021/03/05 00:53:57;;;;;;;23.23;11.60;;;;;;;7.78;50.01;94817.97;5094270;28;20477;-79
2021/03/05 00:56:23;;;;;;;23.03;13.20;;;;;;;7.76;50.03;94813.81;5042020;28;20442;-79
2021/03/05 00:58:49;;;;;;;19.70;13.43;;;;;;;7.68;49.49;94801.34;5094014;28;20435;-79
2021/03/05 01:01:16;;;;;;;28.30;12.23;;;;;;;7.62;50.05;94806.19;5094195;28;20435;-79
2021/03/05 01:03:42;;;;;;;20.73;11.50;;;;;;;7.54;50.09;94819.00;5042139;28;20526;-79
2021/03/05 01:06:09;;;;;;;21.27;12.10;;;;;;;7.45;50.72;94813.47;5093873;28;20483;-79
2021/03/05 01:08:36;;;;;;;27.13;12.53;;;;;;;7.38;51.58;94804.44;5094178;28;20454;-79
2021/03/05 01:11:03;;;;;;;27.10;11.50;;;;;;;7.33;52.31;94810.97;5094112;28;20431;-79
2021/03/05 01:13:30;;;;;;;20.80;12.27;;;;;;;7.27;51.98;94814.03;5093406;28;20491;-79
2021/03/05 01:15:56;;;;;;;25.23;13.40;;;;;;;7.24;52.09;94809.03;5094071;28;20436;-79
2021/03/05 01:18:22;;;;;;;21.10;12.23;;;;;;;7.22;51.76;94806.50;5093849;28;20438;-79
2021/03/05 01:20:49;;;;;;;21.47;11.87;;;;;;;7.19;52.30;94804.13;5093587;28;20458;-79
2021/03/05 01:23:16;;;;;;;19.83;12.27;;;;;;;7.21;51.78;94806.63;5094275;28;20440;-79
2021/03/05 01:25:43;;;;;;;22.60;12.63;;;;;;;7.16;52.27;94799.13;5093503;28;20447;-79
2021/03/05 01:28:12;;;;;;;22.00;11.57;;;;;;;7.15;52.34;94789.63;5093608;28;20438;-79
2021/03/05 01:30:39;;;;;;;21.13;13.43;;;;;;;7.12;52.79;94797.69;5094053;28;20482;-79
2021/03/05 01:33:05;;;;;;;17.47;10.33;;;;;;;7.10;52.63;94813.47;5093047;28;20483;-79
2021/03/05 01:35:32;;;;;;;21.30;12.27;;;;;;;7.06;52.50;94798.16;5093830;28;20920;-79
2021/03/05 01:37:58;;;;;;;17.00;10.90;;;;;;;7.07;51.84;94792.81;5093769;28;20492;-79
2021/03/05 01:40:28;;;;;;;18.13;11.30;;;;;;;7.02;52.69;94800.16;5093736;28;20493;-78
2021/03/05 01:42:55;;;;;;;19.00;11.93;;;;;;;7.04;52.44;94802.63;5093346;28;20431;-79
2021/03/05 01:45:26;;;;;;;19.57;11.53;;;;;;;7.06;52.25;94792.94;5093678;28;20451;-79
2021/03/05 01:47:55;;;;;;;21.20;12.47;;;;;;;7.10;52.33;94789.97;5093215;28;20482;-78
2021/03/05 01:50:23;;;;;;;30.57;11.70;;;;;;;7.08;52.21;94786.66;5093892;28;20439;-79
2021/03/05 01:52:51;;;;;;;14.60;9.33;;;;;;;7.10;52.98;94797.81;5094581;28;20458;-79
2021/03/05 01:55:20;;;;;;;20.07;10.87;;;;;;;7.10;53.01;94799.59;5097841;28;20439;-79
2021/03/05 01:57:46;;;;;;;24.63;11.17;;;;;;;7.08;53.25;94810.13;5062217;28;20489;-78
2021/03/05 02:00:17;;;;;;;18.17;11.37;;;;;;;6.98;52.67;94811.75;5097317;28;20427;-79
2021/03/05 02:02:43;;;;;;;22.37;10.70;;;;;;;6.91;52.49;94799.22;5092166;28;20461;-79
2021/03/05 02:05:11;;;;;;;13.97;9.73;;;;;;;6.93;53.02;94798.19;5097568;28;20492;-79
2021/03/05 02:07:38;;;;;;;21.10;11.67;;;;;;;6.93;52.87;94790.34;5096993;28;20863;-78
2021/03/05 02:10:06;;;;;;;23.83;11.33;;;;;;;6.97;52.08;94791.81;5097945;28;20431;-79
2021/03/05 02:12:33;;;;;;;19.40;10.83;;;;;;;6.99;52.96;94789.09;5061819;28;20833;-79
2021/03/05 02:15:00;;;;;;;16.57;10.27;;;;;;;6.95;53.32;94808.53;5096879;28;20463;-79
2021/03/05 02:17:34;;;;;;;17.80;11.07;;;;;;;6.95;52.81;94795.50;5061773;28;20497;-79
2021/03/05 02:20:37;;;;;;;21.00;9.93;;;;;;;6.97;52.32;94806.66;5097002;28;20445;-79
2021/03/05 02:23:39;;;;;;;17.40;10.50;;;;;;;6.91;52.79;94802.69;5034640;28;20444;-79
2021/03/05 02:26:34;;;;;;;19.43;10.20;;;;;;;6.85;53.17;94790.09;5034482;28;20438;-79
2021/03/05 02:29:23;;;;;;;15.73;10.10;;;;;;;6.87;52.88;94795.19;5034418;28;21001;-79
2021/03/05 02:31:53;;;;;;;20.47;9.60;;;;;;;6.82;52.62;94798.97;5034087;28;20485;-79
2021/03/05 02:34:23;;;;;;;19.77;11.27;;;;;;;6.80;53.55;94802.63;5034259;28;20847;-79
2021/03/05 02:36:52;;;;;;;17.03;10.33;;;;;;;6.76;53.84;94796.78;5034391;28;20449;-79
2021/03/05 02:39:23;;;;;;;14.03;9.47;;;;;;;6.70;53.94;94799.00;5034482;28;20480;-78
2021/03/05 02:41:55;;;;;;;13.87;10.47;;;;;;;6.54;54.80;94799.25;5034588;28;20922;-78
2021/03/05 02:44:24;;;;;;;16.73;10.67;;;;;;;6.53;54.03;94813.22;5034071;28;20446;-79
2021/03/05 02:46:57;;;;;;;23.23;11.50;;;;;;;6.58;54.58;94807.69;5034229;28;20496;-79
2021/03/05 02:49:26;;;;;;;13.17;9.17;;;;;;;6.51;53.92;94805.53;4986874;28;20524;-79
2021/03/05 02:51:57;;;;;;;18.97;10.27;;;;;;;6.56;53.89;94809.56;5034039;28;20446;-79
2021/03/05 02:54:26;;;;;;;14.77;9.00;;;;;;;6.54;54.45;94812.28;5079223;28;20479;-79
2021/03/05 02:56:55;;;;;;;17.17;9.47;;;;;;;6.53;55.63;94821.88;5095960;28;20451;-79
2021/03/05 02:59:23;;;;;;;15.10;9.40;;;;;;;6.50;55.34;94816.88;5044008;28;20442;-79
2021/03/05 03:01:51;;;;;;;15.73;10.30;;;;;;;6.51;54.73;94817.72;5096198;28;20450;-79
2021/03/05 03:04:19;;;;;;;19.83;9.60;;;;;;;6.48;54.91;94817.94;5095805;28;20462;-79
2021/03/05 03:06:46;;;;;;;21.80;9.17;;;;;;;6.38;54.83;94816.91;5096077;28;20447;-79
2021/03/05 03:09:14;;;;;;;20.87;10.17;;;;;;;6.38;55.01;94824.75;5095616;28;20530;-80
2021/03/05 03:11:43;;;;;;;24.23;10.70;;;;;;;6.37;54.64;94815.25;5096002;28;20450;-79
2021/03/05 03:14:11;;;;;;;17.13;9.13;;;;;;;6.35;55.33;94811.91;5095491;28;20483;-80
2021/03/05 03:16:39;;;;;;;14.80;8.87;;;;;;;6.34;54.63;94821.47;5095170;28;20440;-79
2021/03/05 03:19:10;;;;;;;22.27;9.97;;;;;;;6.32;54.57;94820.75;5094977;28;20448;-79
2021/03/05 03:21:37;;;;;;;13.97;8.90;;;;;;;6.25;55.14;94827.34;5095685;28;20443;-79
2021/03/05 03:24:05;;;;;;;14.33;10.17;;;;;;;6.21;56.24;94820.69;5095057;28;20454;-79
2021/03/05 03:26:32;;;;;;;19.10;11.50;;;;;;;6.24;55.93;94830.06;5095124;28;20443;-79
2021/03/05 03:28:58;;;;;;;15.30;9.00;;;;;;;6.21;55.70;94834.53;5095656;28;20851;-79
2021/03/05 03:31:25;;;;;;;20.40;10.03;;;;;;;6.16;56.48;94817.56;5095108;28;20482;-79
2021/03/05 03:33:52;;;;;;;13.93;10.00;;;;;;;6.15;56.43;94821.09;5094985;28;20516;-79
2021/03/05 03:36:21;;;;;;;16.67;10.50;;;;;;;6.12;56.74;94824.75;5094941;28;20448;-79
2021/03/05 03:38:49;;;;;;;14.40;10.00;;;;;;;6.02;56.89;94826.31;5095108;28;20454;-78
2021/03/05 03:41:16;;;;;;;22.53;10.00;;;;;;;6.01;57.14;94824.63;5095042;28;20454;-79
2021/03/05 03:43:42;;;;;;;14.37;9.10;;;;;;;6.01;57.07;94822.03;5095963;28;20454;-79
2021/03/05 03:46:09;;;;;;;19.60;9.63;;;;;;;6.00;56.94;94833.38;5095256;28;20440;-79
2021/03/05 03:48:42;;;;;;;14.37;9.17;;;;;;;5.95;56.72;94835.47;5095312;28;20443;-79
2021/03/05 03:51:11;;;;;;;11.63;9.10;;;;;;;5.88;57.15;94831.59;5095039;28;20448;-79
2021/03/05 03:53:40;;;;;;;16.63;9.20;;;;;;;5.90;58.07;94835.78;5094797;28;20860;-79
2021/03/05 03:56:09;;;;;;;20.80;9.80;;;;;;;5.81;57.88;94831.19;5095708;28;20518;-79
2021/03/05 03:58:39;;;;;;;12.47;8.57;;;;;;;5.75;58.75;94826.34;5095422;28;20432;-79
2021/03/05 04:01:09;;;;;;;13.10;9.83;;;;;;;5.78;57.75;94827.91;5095487;28;20441;-79
2021/03/05 04:03:38;;;;;;;15.67;8.97;;;;;;;5.81;58.72;94838.16;5095948;28;20473;-79
2021/03/05 04:06:07;;;;;;;20.93;8.80;;;;;;;5.82;57.64;94824.22;5095221;28;20934;-79
2021/03/05 04:08:36;;;;;;;11.80;8.00;;;;;;;5.77;58.64;94832.28;5094906;28;20487;-79
2021/03/05 04:11:06;;;;;;;16.83;8.83;;;;;;;5.80;58.41;94833.88;5095069;28;20504;-79
2021/03/05 04:13:32;;;;;;;12.67;8.43;;;;;;;5.72;58.56;94831.78;5094667;28;20464;-79
2021/03/05 04:15:59;;;;;;;13.50;9.33;;;;;;;5.79;58.27;94834.81;5042614;28;20812;-79
2021/03/05 04:18:31;;;;;;;16.00;9.80;;;;;;;5.78;58.54;94838.34;5095197;28;20486;-79
2021/03/05 04:20:59;;;;;;;14.73;9.13;;;;;;;5.81;58.08;94841.59;5094913;28;20447;-79
2021/03/05 04:23:26;;;;;;;13.07;8.37;;;;;;;5.82;58.10;94838.06;5094758;28;20456;-79
2021/03/05 04:25:52;;;;;;;14.47;9.97;;;;;;;5.81;57.83;94835.56;5095157;28;20439;-79
2021/03/05 04:28:19;;;;;;;15.10;8.90;;;;;;;5.90;57.18;94843.59;5094110;28;20447;-79
2021/03/05 04:30:46;;;;;;;16.40;8.63;;;;;;;5.92;57.59;94848.72;5094237;28;20486;-79
2021/03/05 04:33:12;;;;;;;22.93;10.30;;;;;;;5.90;57.31;94842.78;5093963;28;20450;-79
2021/03/05 04:35:38;;;;;;;19.77;9.97;;;;;;;5.86;58.08;94843.88;5094013;28;20431;-79
2021/03/05 04:38:05;;;;;;;14.70;8.47;;;;;;;5.87;58.62;94843.78;5094690;28;20831;-79
2021/03/05 04:40:31;;;;;;;11.43;8.03;;;;;;;5.84;58.55;94841.38;5094536;28;20443;-79
2021/03/05 04:42:58;;;;;;;10.43;8.10;;;;;;;5.79;57.50;94842.63;5094780;28;20472;-79
2021/03/05 04:45:25;;;;;;;13.90;8.40;;;;;;;5.75;58.60;94843.75;5094623;28;20440;-79
2021/03/05 04:47:51;;;;;;;17.90;8.83;;;;;;;5.74;58.11;94840.31;5094487;28;20443;-79
2021/03/05 04:50:18;;;;;;;19.80;9.57;;;;;;;5.70;58.70;94848.44;5094405;28;20439;-79
2021/03/05 04:52:44;;;;;;;30.53;9.60;;;;;;;5.71;59.55;94857.91;5042306;28;20427;-79
2021/03/05 04:55:12;;;;;;;16.70;9.90;;;;;;;5.74;58.32;94836.88;5094176;28;20512;-79
2021/03/05 04:57:38;;;;;;;21.23;10.60;;;;;;;5.81;57.68;94848.56;5094143;28;20451;-79
2021/03/05 05:00:06;;;;;;;18.20;11.63;;;;;;;5.85;60.02;94844.81;5094233;28;20864;-79
2021/03/05 05:02:34;;;;;;;23.43;10.90;;;;;;;5.96;58.13;94844.13;5094219;28;20455;-79
2021/03/05 05:05:00;;;;;;;26.00;10.17;;;;;;;6.01;58.13;94853.28;5094585;28;20815;-78
2021/03/05 05:07:27;;;;;;;17.83;9.05;;;;;;;5.97;57.94;94854.44;5093813;28;20812;-79
2021/03/05 05:09:54;;;;;;;17.90;8.37;;;;;;;5.98;57.33;94842.25;5094125;28;20205;-79
2021/03/05 05:12:20;;;;;;;13.20;9.43;;;;;;;6.01;57.74;94849.84;5093750;28;20451;-79
2021/03/05 05:14:47;;;;;;;14.30;9.70;;;;;;;6.06;57.20;94842.56;5093737;28;20493;-80
2021/03/05 05:17:13;;;;;;;12.83;9.13;;;;;;;6.15;57.12;94848.00;5093935;28;20488;-79
2021/03/05 05:19:41;;;;;;;17.40;10.87;;;;;;;6.21;57.13;94850.19;5093529;28;20444;-79
2021/03/05 05:22:07;;;;;;;30.33;10.17;;;;;;;6.26;56.68;94849.84;5041879;28;20447;-79
2021/03/05 05:24:33;;;;;;;23.77;8.33;;;;;;;6.20;57.44;94845.91;5093576;28;20883;-78
2021/03/05 05:27:00;;;;;;;14.67;9.87;;;;;;;6.25;57.81;94861.22;5096631;28;20435;-78
2021/03/05 05:29:26;;;;;;;17.30;9.33;;;;;;;6.29;57.73;94859.22;5100646;28;20451;-79
2021/03/05 05:31:53;;;;;;;21.73;10.53;;;;;;;6.51;62.89;94855.03;5100693;28;20451;-78
2021/03/05 05:34:19;;;;;;;27.23;10.60;;;;;;;6.90;58.23;94861.00;5048458;28;20474;-79
2021/03/05 05:36:46;;;;;;;32.23;10.00;;;;;;;7.45;55.50;94862.25;5100619;28;20455;-81
2021/03/05 05:39:13;;;;;;;49.30;12.97;;;;;;;7.99;53.75;94857.34;5100784;28;20431;-79
2021/03/05 05:41:40;;;;;;;22.10;10.20;;;;;;;8.79;50.69;94853.88;5065421;28;20458;-79
2021/03/05 05:44:07;;;;;;;20.33;10.40;;;;;;;9.23;48.42;94855.56;5100312;28;20449;-80
2021/03/05 05:46:34;;;;;;;22.33;9.67;;;;;;;9.39;48.30;94860.44;5100411;28;20444;-80
2021/03/05 05:49:03;;;;;;;18.87;9.37;;;;;;;9.70;48.02;94862.22;5065092;28;20472;-80
2021/03/05 05:51:33;;;;;;;18.37;9.20;;;;;;;9.99;46.05;94869.47;5100379;28;20449;-80
2021/03/05 05:54:07;;;;;;;19.27;10.20;;;;;;;10.18;54.17;94873.06;5100296;28;20912;-80
2021/03/05 05:56:35;;;;;;;15.80;9.33;;;;;;;10.45;50.35;94862.09;5100331;28;20816;-80
2021/03/05 05:59:02;;;;;;;17.90;10.13;;;;;;;10.79;47.23;94864.44;5100974;28;20495;-81
2021/03/05 06:01:33;;;;;;;18.53;10.70;;;;;;;11.24;44.18;94872.72;5100474;28;20437;-82
2021/03/05 06:04:01;;;;;;;14.57;9.80;;;;;;;11.75;43.76;94883.06;5100677;28;20468;-81
2021/03/05 06:06:28;;;;;;;23.63;11.00;;;;;;;12.23;41.14;94874.38;5098654;28;20435;-81
2021/03/05 06:08:58;;;;;;;32.60;17.90;;;;;;;12.41;40.94;94871.84;5100111;28;20443;-82
2021/03/05 06:11:31;;;;;;;32.63;18.57;;;;;;;12.85;40.15;94872.97;5100255;28;20443;-81
2021/03/05 06:14:00;;;;;;;41.20;18.17;;;;;;;13.02;39.02;94880.13;5100635;28;20475;-80
2021/03/05 06:16:27;;;;;;;32.63;17.00;;;;;;;13.48;38.56;94881.00;5100084;28;20443;-82
2021/03/05 06:18:53;;;;;;;25.07;16.20;;;;;;;13.90;37.76;94872.56;5099980;28;20440;-81
2021/03/05 06:21:35;;;;;;;31.00;15.30;;;;;;;14.38;36.95;94887.13;5099969;28;20441;-82
2021/03/05 06:24:03;;;;;;;33.10;14.10;;;;;;;14.78;36.24;94879.56;5100345;28;20435;-81
2021/03/05 06:26:30;;;;;;;21.93;12.30;;;;;;;14.85;36.26;94875.28;5100187;28;20470;-81
2021/03/05 06:29:02;;;;;;;24.90;15.13;;;;;;;14.93;35.83;94877.13;5100317;28;20489;-81
2021/03/05 06:31:28;;;;;;;18.50;14.33;;;;;;;15.01;36.18;94871.06;5064209;28;20530;-80
2021/03/05 06:33:58;;;;;;;18.37;12.47;;;;;;;15.13;35.94;94883.03;5099952;28;20518;-80
2021/03/05 06:36:24;;;;;;;27.90;15.17;;;;;;;15.29;35.67;94872.53;5100247;28;20492;-79
2021/03/05 06:38:51;;;;;;;21.20;13.00;;;;;;;15.45;34.91;94867.31;5097158;28;20447;-80
2021/03/05 06:41:20;;;;;;;36.90;16.13;;;;;;;15.45;35.33;94874.41;5096655;28;20468;-79
2021/03/05 06:43:48;;;;;;;39.47;17.60;;;;;;;15.47;35.32;94875.91;5044654;28;20430;-81
2021/03/05 06:46:28;;;;;;;42.53;17.90;;;;;;;15.57;36.20;94872.28;5096115;28;20499;-79
2021/03/05 06:48:55;;;;;;;36.93;16.37;;;;;;;15.62;35.33;94875.34;5096712;28;20445;-79
2021/03/05 06:51:22;;;;;;;37.87;18.77;;;;;;;15.78;35.23;94873.53;5096676;28;20471;-79
2021/03/05 06:53:48;;;;;;;47.50;17.43;;;;;;;15.86;34.80;94879.84;5096553;28;20468;-78
2021/03/05 06:56:28;;;;;;;37.37;18.73;;;;;;;15.93;34.66;94876.41;5096437;28;21000;-79
2021/03/05 06:59:03;;;;;;;31.23;16.23;;;;;;;16.00;34.03;94877.38;5096524;28;20432;-79
2021/03/05 07:01:30;;;;;;;35.10;17.27;;;;;;;16.09;34.03;94867.63;5096178;28;20533;-79
2021/03/05 07:04:07;;;;;;;43.73;20.37;;;;;;;16.31;34.12;94868.81;5096601;28;20455;-80
2021/03/05 07:06:33;;;;;;;31.63;18.03;;;;;;;16.37;33.72;94873.44;5096395;28;20443;-79
2021/03/05 07:09:00;;;;;;;54.77;25.90;;;;;;;16.35;34.04;94859.53;5096068;28;20439;-79
2021/03/05 07:11:39;;;;;;;59.70;30.77;;;;;;;16.53;33.63;94868.16;5095998;28;20475;-79
2021/03/05 07:14:08;;;;;;;60.50;33.57;;;;;;;16.65;33.46;94864.16;5095958;28;20789;-79
2021/03/05 07:16:44;;;;;;;42.67;22.43;;;;;;;16.70;33.25;94859.19;5095932;28;20448;-79
2021/03/05 07:19:11;;;;;;;36.83;20.13;;;;;;;16.83;32.26;94850.75;5096079;28;20442;-79
2021/03/05 07:21:40;;;;;;;26.73;14.70;;;;;;;17.00;31.78;94864.75;5095992;28;20434;-79
2021/03/05 07:24:09;;;;;;;15.90;11.87;;;;;;;17.10;31.44;94865.41;5095929;28;20477;-78
2021/03/05 07:26:43;;;;;;;19.00;11.70;;;;;;;17.27;31.13;94856.38;5095478;28;20449;-79
2021/03/05 07:29:16;;;;;;;25.27;13.00;;;;;;;16.99;31.05;94861.28;5096182;28;20945;-79
2021/03/05 07:31:44;;;;;;;24.83;12.77;;;;;;;16.99;31.87;94861.28;5095943;28;20807;-80
2021/03/05 07:37:54;;;;;;;20.90;12.50;;;;;;;16.96;31.68;94869.59;5095886;28;20411;-79
2021/03/05 07:40:22;;;;;;;20.63;12.50;;;;;;;16.90;31.90;94853.53;5095691;28;20456;-78
2021/03/05 07:42:50;;;;;;;28.83;15.00;;;;;;;16.73;31.57;94855.38;5043486;28;21172;-78
2021/03/05 07:45:18;;;;;;;26.40;14.53;;;;;;;16.68;32.39;94863.00;5095422;28;20452;-78
2021/03/05 07:47:46;;;;;;;30.37;15.27;;;;;;;15.86;33.81;94859.50;5095076;28;20432;-80
2021/03/05 07:50:15;;;;;;;24.97;14.00;;;;;;;16.05;33.47;94859.19;5093723;28;20437;-78
2021/03/05 07:52:42;;;;;;;29.87;16.80;;;;;;;16.21;32.94;94853.09;5096640;28;20823;-78
2021/03/05 07:55:10;;;;;;;20.80;14.20;;;;;;;15.97;33.14;94848.59;5094795;28;20490;-79
2021/03/05 07:57:46;;;;;;;29.50;14.07;;;;;;;16.10;33.33;94846.28;5095072;28;20447;-79
2021/03/05 08:00:15;;;;;;;22.23;13.40;;;;;;;16.25;33.27;94850.94;5094939;28;20440;-78
2021/03/05 08:02:59;;;;;;;24.63;13.43;;;;;;;16.24;32.15;94851.94;5059648;28;20490;-79
2021/03/05 08:05:32;;;;;;;25.77;14.87;;;;;;;16.11;31.90;94847.94;5012683;28;20506;-79
2021/03/05 08:11:26;;;;;;;32.40;17.00;;;;;;;15.97;33.21;94842.47;5013048;28;20506;-79
2021/03/05 08:13:54;;;;;;;25.70;14.47;;;;;;;15.90;33.21;94844.97;5012758;28;20521;-79
2021/03/05 08:16:38;;;;;;;27.10;15.30;;;;;;;15.61;33.79;94845.41;5013033;28;20440;-79
2021/03/05 08:19:44;;;;;;;29.03;15.80;;;;;;;15.59;33.70;94838.59;5012715;28;20785;-79
2021/03/05 08:22:12;;;;;;;41.20;17.03;;;;;;;15.39;33.75;94835.41;5012645;28;20450;-79
2021/03/05 08:24:42;;;;;;;33.73;17.50;;;;;;;15.32;33.60;94831.72;5012805;28;20450;-78
2021/03/05 08:27:14;;;;;;;31.53;16.70;;;;;;;15.45;33.03;94835.56;5012695;28;20439;-79
2021/03/05 08:30:00;;;;;;;31.07;16.63;;;;;;;15.48;33.51;94829.13;5012375;28;21067;-79
2021/03/05 08:32:44;;;;;;;38.07;17.17;;;;;;;15.44;33.65;94825.97;5012143;28;20472;-79
2021/03/05 08:35:12;;;;;;;41.13;25.33;;;;;;;15.23;33.78;94824.75;5011665;28;20474;-78
2021/03/05 08:37:42;;;;;;;32.13;18.87;;;;;;;15.25;30.99;94820.97;5012286;28;20543;-79
2021/03/05 08:40:31;;;;;;;28.93;15.03;;;;;;;15.25;31.05;94820.13;5012552;28;20470;-78
2021/03/05 08:43:16;;;;;;;27.20;16.50;;;;;;;15.24;30.79;94815.81;5066595;28;20456;-80
2021/03/05 08:45:44;;;;;;;27.60;15.67;;;;;;;15.15;30.01;94812.34;5094999;28;20450;-80
2021/03/05 08:48:15;;;;;;;33.50;17.23;;;;;;;15.20;30.20;94807.41;5094193;28;20450;-80
2021/03/05 08:50:42;;;;;;;21.00;14.83;;;;;;;15.30;29.62;94815.19;5058584;28;20437;-79
2021/03/05 08:53:12;;;;;;;18.90;13.90;;;;;;;15.23;29.86;94787.75;5094455;28;20491;-79
2021/03/05 08:55:40;;;;;;;17.70;12.83;;;;;;;15.20;29.28;94799.47;5094365;28;20468;-79
2021/03/05 08:58:06;;;;;;;24.70;14.50;;;;;;;15.34;29.03;94800.69;5094352;28;20424;-78
2021/03/05 09:00:35;;;;;;;24.10;13.90;;;;;;;15.38;29.38;94802.00;5093750;28;20953;-79
2021/03/05 09:03:07;;;;;;;20.30;14.83;;;;;;;15.56;29.30;94791.28;5093256;28;20794;-79
2021/03/05 09:05:37;;;;;;;22.73;14.43;;;;;;;15.69;28.54;94797.81;5094012;28;20561;-78
2021/03/05 09:08:05;;;;;;;32.90;15.17;;;;;;;15.69;28.10;94797.81;5094316;28;20804;-78
2021/03/05 09:10:41;;;;;;;30.23;14.10;;;;;;;15.91;29.11;94798.16;5041735;28;20440;-79
2021/03/05 09:13:08;;;;;;;30.00;14.40;;;;;;;15.84;28.75;94795.31;5093850;28;20515;-80
2021/03/05 09:15:40;;;;;;;30.27;14.23;;;;;;;15.73;28.31;94790.34;5093239;28;20841;-79
2021/03/05 09:18:07;;;;;;;26.30;13.63;;;;;;;15.24;28.95;94784.94;5093301;28;20446;-80
2021/03/05 09:20:40;;;;;;;19.70;12.40;;;;;;;15.24;28.30;94779.66;5093977;28;20794;-79
2021/03/05 09:23:32;;;;;;;19.80;12.30;;;;;;;15.40;27.96;94790.28;5094290;28;20987;-79
2021/03/05 09:26:03;;;;;;;25.30;12.70;;;;;;;15.38;28.11;94784.31;5093457;28;20445;-79
2021/03/05 09:28:37;;;;;;;29.00;14.47;;;;;;;15.36;28.09;94783.66;5093710;28;20472;-79
2021/03/05 09:31:30;;;;;;;24.43;12.73;;;;;;;15.58;29.06;94771.66;5078136;28;20454;-79
2021/03/05 09:34:00;;;;;;;22.43;12.43;;;;;;;15.36;28.51;94777.53;5073345;28;21010;-79
2021/03/05 09:36:26;;;;;;;23.03;12.10;;;;;;;15.38;29.16;94778.22;5073530;28;20828;-78
2021/03/05 09:38:54;;;;;;;19.07;11.67;;;;;;;15.15;29.30;94770.03;5073667;28;20444;-78
2021/03/05 09:41:23;;;;;;;20.27;12.37;;;;;;;15.05;28.96;94775.47;5073103;28;20924;-78
2021/03/05 09:43:58;;;;;;;30.70;12.93;;;;;;;15.21;28.49;94779.16;5038907;28;20448;-79
2021/03/05 09:46:27;;;;;;;20.13;13.37;;;;;;;15.35;29.39;94765.31;5073915;28;20502;-79
2021/03/05 09:48:54;;;;;;;16.07;11.73;;;;;;;15.31;28.23;94780.66;5038685;28;20957;-79
2021/03/05 09:51:22;;;;;;;28.20;12.90;;;;;;;15.41;28.28;94754.91;5073194;28;20491;-79
2021/03/05 09:53:52;;;;;;;24.17;13.33;;;;;;;15.52;28.72;94758.22;5073472;28;20443;-79
2021/03/05 09:56:22;;;;;;;32.03;12.53;;;;;;;15.55;29.06;94753.44;5073562;28;20440;-79
2021/03/05 09:58:54;;;;;;;25.50;12.20;;;;;;;15.62;28.68;94748.38;5073397;28;20447;-80
2021/03/05 10:01:21;;;;;;;23.83;11.80;;;;;;;15.70;28.73;94740.44;5073088;28;20841;-79
2021/03/05 10:03:52;;;;;;;20.73;11.97;;;;;;;15.98;28.46;94744.41;5073095;28;20444;-78
2021/03/05 10:06:19;;;;;;;19.50;12.07;;;;;;;15.87;28.39;94739.41;5073180;28;20407;-78
2021/03/05 10:08:45;;;;;;;14.73;11.03;;;;;;;15.78;28.01;94730.66;5073317;28;20445;-78
2021/03/05 10:11:13;;;;;;;20.50;10.70;;;;;;;15.91;28.05;94730.19;5072942;28;20444;-79
2021/03/05 10:13:42;;;;;;;20.73;12.27;;;;;;;15.89;27.25;94732.13;5073572;28;20436;-79
2021/03/05 10:16:13;;;;;;;15.60;10.13;;;;;;;15.81;27.08;94724.22;5058368;28;20920;-79
2021/03/05 10:18:41;;;;;;;34.60;12.47;;;;;;;15.98;28.18;94725.88;5076908;28;20446;-79
2021/03/05 10:21:09;;;;;;;18.20;11.10;;;;;;;16.09;26.42;94732.63;5077042;28;20478;-80
2021/03/05 10:23:37;;;;;;;20.63;13.00;;;;;;;16.07;27.18;94724.84;5042127;28;20447;-79
2021/03/05 10:26:03;;;;;;;17.60;11.90;;;;;;;16.18;27.14;94725.50;5076376;28;20444;-79
2021/03/05 10:28:30;;;;;;;21.97;11.50;;;;;;;16.25;27.27;94721.19;5076780;28;20884;-80
2021/03/05 10:30:58;;;;;;;19.30;12.20;;;;;;;16.25;26.58;94718.56;5042157;28;20456;-78
2021/03/05 10:33:42;;;;;;;19.63;11.23;;;;;;;16.24;26.34;94711.59;5094072;28;20797;-76
2021/03/05 10:36:10;;;;;;;19.73;11.10;;;;;;;16.28;26.43;94704.97;5097396;28;20932;-81
2021/03/05 10:38:37;;;;;;;18.40;11.10;;;;;;;16.18;25.57;94694.53;5096247;28;20435;-78
2021/03/05 10:41:04;;;;;;;15.97;10.60;;;;;;;16.27;25.99;94703.31;5097501;28;21123;-80
2021/03/05 10:43:31;;;;;;;24.27;10.60;;;;;;;16.21;26.74;94699.53;5096651;28;20533;-78
2021/03/05 10:45:58;;;;;;;26.30;11.40;;;;;;;16.01;26.08;94690.28;5097034;28;20448;-78
2021/03/05 10:48:25;;;;;;;14.23;10.30;;;;;;;15.96;25.88;94693.44;5096623;28;20527;-79
2021/03/05 10:50:51;;;;;;;19.10;8.53;;;;;;;15.90;25.26;94685.34;5096667;28;20471;-80
2021/03/05 11:00:01;;;;;;;20.08;9.55;;;;;;;16.57;26.07;94673.41;5094867;28;20523;-81
2021/03/05 11:02:28;;;;;;;16.40;10.10;;;;;;;16.68;24.33;94669.59;5096697;28;20190;-80
2021/03/05 11:04:54;;;;;;;21.60;8.70;;;;;;;16.58;24.47;94664.47;5096175;28;20958;-80
2021/03/05 11:07:21;;;;;;;17.10;8.57;;;;;;;16.63;24.14;94662.13;5084001;28;20476;-80
2021/03/05 11:09:47;;;;;;;26.70;8.30;;;;;;;16.70;23.96;94654.34;5075602;28;20847;-79
2021/03/05 11:12:13;;;;;;;12.10;7.77;;;;;;;16.69;23.25;94642.09;5075754;28;20457;-81
2021/03/05 11:14:40;;;;;;;14.23;8.53;;;;;;;16.77;23.65;94638.56;5075403;28;20486;-81
2021/03/05 11:17:06;;;;;;;18.50;7.93;;;;;;;16.88;24.23;94633.72;5078325;28;21550;-79
2021/03/05 11:19:34;;;;;;;14.23;7.90;;;;;;;17.00;23.58;94631.47;5096130;28;20935;-80
2021/03/05 11:22:00;;;;;;;14.73;8.30;;;;;;;16.96;23.50;94630.19;5094724;28;20505;-81
2021/03/05 11:24:27;;;;;;;10.50;8.10;;;;;;;16.95;23.92;94621.41;5075973;28;20446;-89
2021/03/05 11:27:00;;;;;;;14.63;7.03;;;;;;;17.01;22.42;94623.34;5076572;28;20445;-80
2021/03/05 11:29:27;;;;;;;16.03;6.53;;;;;;;17.03;21.91;94615.22;5076578;28;20460;-79
2021/03/05 11:31:53;;;;;;;11.00;6.73;;;;;;;17.09;22.53;94601.28;5076445;28;20499;-80
2021/03/05 11:34:20;;;;;;;6.40;5.77;;;;;;;17.22;22.72;94608.63;5076598;28;20468;-79
2021/03/05 11:36:48;;;;;;;6.90;5.40;;;;;;;17.33;23.62;94601.06;5024267;28;20450;-80
2021/03/05 11:39:15;;;;;;;7.53;4.70;;;;;;;17.45;19.96;94593.53;5076381;28;20431;-80
2021/03/05 11:41:41;;;;;;;7.13;5.27;;;;;;;17.54;19.94;94594.28;5024189;28;20451;-80
2021/03/05 11:44:08;;;;;;;4.07;3.63;;;;;;;17.58;19.15;94591.06;5075757;28;20484;-81
2021/03/05 11:46:34;;;;;;;8.83;4.50;;;;;;;17.61;19.59;94582.75;5075857;28;20450;-80